sensor_id;sensor_type;location;lat;lon;timestamp;pressure;altitude;pressure_sealevel;temperature
61977;BMP280;45905;50.570;10.428;2023-07-29T00:00:49;97335.88;;;19.75
61977;BMP280;45905;50.570;10.428;2023-07-29T00:03:16;97325.81;;;19.73
61977;BMP280;45905;50.570;10.428;2023-07-29T00:05:43;97331.97;;;19.72
61977;BMP280;45905;50.570;10.428;2023-07-29T00:08:10;97319.31;;;19.71
61977;BMP280;45905;50.570;10.428;2023-07-29T00:10:38;97315.97;;;19.70
61977;BMP280;45905;50.570;10.428;2023-07-29T00:13:07;97311.88;;;19.69
61977;BMP280;45905;50.570;10.428;2023-07-29T00:15:34;97317.75;;;19.70
61977;BMP280;45905;50.570;10.428;2023-07-29T00:18:02;97305.94;;;19.69
61977;BMP280;45905;50.570;10.428;2023-07-29T00:20:29;97308.72;;;19.68
61977;BMP280;45905;50.570;10.428;2023-07-29T00:22:56;97310.31;;;19.68
61977;BMP280;45905;50.570;10.428;2023-07-29T00:25:25;97307.94;;;19.67
61977;BMP280;45905;50.570;10.428;2023-07-29T00:27:56;97318.22;;;19.67
61977;BMP280;45905;50.570;10.428;2023-07-29T00:30:25;97315.88;;;19.66
61977;BMP280;45905;50.570;10.428;2023-07-29T00:32:52;97317.88;;;19.64
61977;BMP280;45905;50.570;10.428;2023-07-29T00:35:19;97315.53;;;19.62
61977;BMP280;45905;50.570;10.428;2023-07-29T00:37:46;97313.22;;;19.61
61977;BMP280;45905;50.570;10.428;2023-07-29T00:40:22;97313.66;;;19.58
61977;BMP280;45905;50.570;10.428;2023-07-29T00:42:50;97318.78;;;19.58
61977;BMP280;45905;50.570;10.428;2023-07-29T00:45:19;97312.88;;;19.57
61977;BMP280;45905;50.570;10.428;2023-07-29T00:47:47;97306.94;;;19.57
61977;BMP280;45905;50.570;10.428;2023-07-29T00:50:16;97312.50;;;19.54
61977;BMP280;45905;50.570;10.428;2023-07-29T00:52:44;97310.94;;;19.53
61977;BMP280;45905;50.570;10.428;2023-07-29T00:55:12;97304.56;;;19.55
61977;BMP280;45905;50.570;10.428;2023-07-29T00:57:39;97298.09;;;19.53
61977;BMP280;45905;50.570;10.428;2023-07-29T01:00:08;97297.88;;;19.54
61977;BMP280;45905;50.570;10.428;2023-07-29T01:02:36;97291.41;;;19.52
61977;BMP280;45905;50.570;10.428;2023-07-29T01:05:04;97293.72;;;19.53
61977;BMP280;45905;50.570;10.428;2023-07-29T01:08:12;97288.84;;;19.52
61977;BMP280;45905;50.570;10.428;2023-07-29T01:10:54;97281.13;;;19.52
61977;BMP280;45905;50.570;10.428;2023-07-29T01:13:48;97269.94;;;19.47
61977;BMP280;45905;50.570;10.428;2023-07-29T01:16:35;97275.53;;;19.44
61977;BMP280;45905;50.570;10.428;2023-07-29T01:19:12;97284.47;;;19.41
61977;BMP280;45905;50.570;10.428;2023-07-29T01:21:42;97288.06;;;19.40
61977;BMP280;45905;50.570;10.428;2023-07-29T01:24:09;97292.63;;;19.38
61977;BMP280;45905;50.570;10.428;2023-07-29T01:26:38;97289.16;;;19.33
61977;BMP280;45905;50.570;10.428;2023-07-29T01:29:05;97297.09;;;19.31
61977;BMP280;45905;50.570;10.428;2023-07-29T01:31:44;97299.53;;;19.27
61977;BMP280;45905;50.570;10.428;2023-07-29T01:34:29;97303.56;;;19.23
61977;BMP280;45905;50.570;10.428;2023-07-29T01:37:02;97290.94;;;19.21
61977;BMP280;45905;50.570;10.428;2023-07-29T01:39:34;97304.00;;;19.20
61977;BMP280;45905;50.570;10.428;2023-07-29T01:42:04;97296.50;;;19.18
61977;BMP280;45905;50.570;10.428;2023-07-29T01:44:32;97309.59;;;19.17
61977;BMP280;45905;50.570;10.428;2023-07-29T01:47:00;97303.31;;;19.13
61977;BMP280;45905;50.570;10.428;2023-07-29T01:49:27;97310.03;;;19.14
61977;BMP280;45905;50.570;10.428;2023-07-29T01:51:55;97298.97;;;19.13
61977;BMP280;45905;50.570;10.428;2023-07-29T01:54:22;97296.63;;;19.12
61977;BMP280;45905;50.570;10.428;2023-07-29T01:56:49;97297.19;;;19.14
61977;BMP280;45905;50.570;10.428;2023-07-29T01:59:18;97289.47;;;19.14
61977;BMP280;45905;50.570;10.428;2023-07-29T02:01:45;97285.91;;;19.15
61977;BMP280;45905;50.570;10.428;2023-07-29T02:04:13;97285.91;;;19.15
61977;BMP280;45905;50.570;10.428;2023-07-29T02:06:40;97290.59;;;19.18
61977;BMP280;45905;50.570;10.428;2023-07-29T02:09:09;97295.41;;;19.14
61977;BMP280;45905;50.570;10.428;2023-07-29T02:11:36;97293.63;;;19.15
61977;BMP280;45905;50.570;10.428;2023-07-29T02:14:03;97289.81;;;19.17
61977;BMP280;45905;50.570;10.428;2023-07-29T02:16:31;97299.97;;;19.12
61977;BMP280;45905;50.570;10.428;2023-07-29T02:18:59;97279.34;;;19.08
61977;BMP280;45905;50.570;10.428;2023-07-29T02:21:27;97291.38;;;19.07
61977;BMP280;45905;50.570;10.428;2023-07-29T02:23:54;97276.97;;;19.06
61977;BMP280;45905;50.570;10.428;2023-07-29T02:26:22;97281.34;;;19.06
61977;BMP280;45905;50.570;10.428;2023-07-29T02:28:49;97266.16;;;19.04
61977;BMP280;45905;50.570;10.428;2023-07-29T02:31:23;97255.88;;;19.04
61977;BMP280;45905;50.570;10.428;2023-07-29T02:33:51;97243.03;;;19.04
61977;BMP280;45905;50.570;10.428;2023-07-29T02:36:19;97244.41;;;19.07
61977;BMP280;45905;50.570;10.428;2023-07-29T02:38:46;97239.47;;;19.05
61977;BMP280;45905;50.570;10.428;2023-07-29T02:41:14;97227.66;;;19.04
61977;BMP280;45905;50.570;10.428;2023-07-29T02:43:48;97232.34;;;19.07
61977;BMP280;45905;50.570;10.428;2023-07-29T02:46:16;97251.31;;;19.06
61977;BMP280;45905;50.570;10.428;2023-07-29T02:48:44;97258.00;;;19.07
61977;BMP280;45905;50.570;10.428;2023-07-29T02:51:12;97272.63;;;19.07
61977;BMP280;45905;50.570;10.428;2023-07-29T02:53:39;97264.38;;;19.05
61977;BMP280;45905;50.570;10.428;2023-07-29T02:56:06;97267.94;;;19.04
61977;BMP280;45905;50.570;10.428;2023-07-29T02:58:37;97263.00;;;19.02
61977;BMP280;45905;50.570;10.428;2023-07-29T03:01:06;97265.25;;;18.99
61977;BMP280;45905;50.570;10.428;2023-07-29T03:03:33;97271.19;;;18.99
61977;BMP280;45905;50.570;10.428;2023-07-29T03:06:12;97264.47;;;18.98
61977;BMP280;45905;50.570;10.428;2023-07-29T03:08:40;97258.00;;;18.96
61977;BMP280;45905;50.570;10.428;2023-07-29T03:11:10;97259.00;;;18.95
61977;BMP280;45905;50.570;10.428;2023-07-29T03:13:38;97252.50;;;18.92
61977;BMP280;45905;50.570;10.428;2023-07-29T03:16:15;97256.22;;;18.96
61977;BMP280;45905;50.570;10.428;2023-07-29T03:18:49;97254.63;;;18.95
61977;BMP280;45905;50.570;10.428;2023-07-29T03:21:16;97253.06;;;18.94
61977;BMP280;45905;50.570;10.428;2023-07-29T03:23:44;97247.94;;;18.94
61977;BMP280;45905;50.570;10.428;2023-07-29T03:26:11;97244.38;;;18.95
61977;BMP280;45905;50.570;10.428;2023-07-29T03:28:41;97239.47;;;18.94
61977;BMP280;45905;50.570;10.428;2023-07-29T03:31:09;97245.59;;;18.93
61977;BMP280;45905;50.570;10.428;2023-07-29T03:33:37;97237.88;;;18.93
61977;BMP280;45905;50.570;10.428;2023-07-29T03:36:05;97225.06;;;18.93
61977;BMP280;45905;50.570;10.428;2023-07-29T03:38:32;97226.84;;;18.92
61977;BMP280;45905;50.570;10.428;2023-07-29T03:41:02;97228.09;;;18.90
61977;BMP280;45905;50.570;10.428;2023-07-29T03:43:30;97229.88;;;18.90
61977;BMP280;45905;50.570;10.428;2023-07-29T03:46:00;97229.09;;;18.89
61977;BMP280;45905;50.570;10.428;2023-07-29T03:48:27;97238.00;;;18.87
61977;BMP280;45905;50.570;10.428;2023-07-29T03:50:55;97233.09;;;18.85
61977;BMP280;45905;50.570;10.428;2023-07-29T03:53:22;97229.75;;;18.85
61977;BMP280;45905;50.570;10.428;2023-07-29T03:55:49;97236.88;;;18.83
61977;BMP280;45905;50.570;10.428;2023-07-29T03:58:17;97231.19;;;18.81
61977;BMP280;45905;50.570;10.428;2023-07-29T04:00:44;97232.41;;;18.78
61977;BMP280;45905;50.570;10.428;2023-07-29T04:03:11;97232.75;;;18.82
61977;BMP280;45905;50.570;10.428;2023-07-29T04:05:39;97229.94;;;18.83
61977;BMP280;45905;50.570;10.428;2023-07-29T04:08:06;97234.09;;;18.84
61977;BMP280;45905;50.570;10.428;2023-07-29T04:10:33;97230.31;;;18.87
61977;BMP280;45905;50.570;10.428;2023-07-29T04:13:02;97231.31;;;18.86
61977;BMP280;45905;50.570;10.428;2023-07-29T04:15:29;97234.44;;;18.88
61977;BMP280;45905;50.570;10.428;2023-07-29T04:17:57;97235.44;;;18.87
61977;BMP280;45905;50.570;10.428;2023-07-29T04:20:24;97233.66;;;18.87
61977;BMP280;45905;50.570;10.428;2023-07-29T04:22:51;97230.41;;;18.80
61977;BMP280;45905;50.570;10.428;2023-07-29T04:25:19;97224.50;;;18.80
61977;BMP280;45905;50.570;10.428;2023-07-29T04:27:46;97227.63;;;18.82
61977;BMP280;45905;50.570;10.428;2023-07-29T04:30:14;97224.81;;;18.83
61977;BMP280;45905;50.570;10.428;2023-07-29T04:32:41;97226.59;;;18.83
61977;BMP280;45905;50.570;10.428;2023-07-29T04:35:09;97227.16;;;18.85
61977;BMP280;45905;50.570;10.428;2023-07-29T04:37:36;97227.75;;;18.87
61977;BMP280;45905;50.570;10.428;2023-07-29T04:40:04;97224.75;;;18.90
61977;BMP280;45905;50.570;10.428;2023-07-29T04:42:31;97231.19;;;18.92
61977;BMP280;45905;50.570;10.428;2023-07-29T04:44:59;97232.53;;;18.94
61977;BMP280;45905;50.570;10.428;2023-07-29T04:47:26;97213.00;;;18.93
61977;BMP280;45905;50.570;10.428;2023-07-29T04:49:54;97220.06;;;18.98
61977;BMP280;45905;50.570;10.428;2023-07-29T04:52:21;97209.78;;;18.98
61977;BMP280;45905;50.570;10.428;2023-07-29T04:54:48;97219.84;;;18.99
61977;BMP280;45905;50.570;10.428;2023-07-29T04:57:16;97226.50;;;19.00
61977;BMP280;45905;50.570;10.428;2023-07-29T04:59:43;97222.72;;;19.03
61977;BMP280;45905;50.570;10.428;2023-07-29T05:02:10;97223.28;;;19.05
61977;BMP280;45905;50.570;10.428;2023-07-29T05:04:38;97215.38;;;19.06
61977;BMP280;45905;50.570;10.428;2023-07-29T05:07:05;97218.50;;;19.08
61977;BMP280;45905;50.570;10.428;2023-07-29T05:09:33;97216.47;;;19.10
61977;BMP280;45905;50.570;10.428;2023-07-29T05:12:00;97207.00;;;19.10
61977;BMP280;45905;50.570;10.428;2023-07-29T05:14:27;97192.38;;;19.11
61977;BMP280;45905;50.570;10.428;2023-07-29T05:16:54;97189.03;;;19.10
61977;BMP280;45905;50.570;10.428;2023-07-29T05:19:22;97178.53;;;19.12
61977;BMP280;45905;50.570;10.428;2023-07-29T05:21:49;97185.25;;;19.13
61977;BMP280;45905;50.570;10.428;2023-07-29T05:24:16;97186.03;;;19.13
61977;BMP280;45905;50.570;10.428;2023-07-29T05:26:44;97187.59;;;19.14
61977;BMP280;45905;50.570;10.428;2023-07-29T05:29:11;97192.72;;;19.14
61977;BMP280;45905;50.570;10.428;2023-07-29T05:31:38;97206.56;;;19.13
61977;BMP280;45905;50.570;10.428;2023-07-29T05:34:06;97207.22;;;19.09
61977;BMP280;45905;50.570;10.428;2023-07-29T05:36:34;97206.22;;;19.10
61977;BMP280;45905;50.570;10.428;2023-07-29T05:39:01;97215.47;;;19.11
61977;BMP280;45905;50.570;10.428;2023-07-29T05:41:29;97212.91;;;19.11
61977;BMP280;45905;50.570;10.428;2023-07-29T05:43:57;97207.00;;;19.10
61977;BMP280;45905;50.570;10.428;2023-07-29T05:46:24;97208.56;;;19.11
61977;BMP280;45905;50.570;10.428;2023-07-29T05:48:51;97220.16;;;19.14
61977;BMP280;45905;50.570;10.428;2023-07-29T05:51:18;97224.31;;;19.15
61977;BMP280;45905;50.570;10.428;2023-07-29T05:53:46;97213.69;;;19.11
61977;BMP280;45905;50.570;10.428;2023-07-29T05:56:13;97224.75;;;19.12
61977;BMP280;45905;50.570;10.428;2023-07-29T05:58:40;97225.53;;;19.12
61977;BMP280;45905;50.570;10.428;2023-07-29T06:01:07;97216.03;;;19.13
61977;BMP280;45905;50.570;10.428;2023-07-29T06:03:35;97217.59;;;19.14
61977;BMP280;45905;50.570;10.428;2023-07-29T06:06:03;97215.03;;;19.14
61977;BMP280;45905;50.570;10.428;2023-07-29T06:08:30;97225.88;;;19.16
61977;BMP280;45905;50.570;10.428;2023-07-29T06:11:01;97220.28;;;19.19
61977;BMP280;45905;50.570;10.428;2023-07-29T06:13:28;97216.69;;;19.20
61977;BMP280;45905;50.570;10.428;2023-07-29T06:15:56;97214.25;;;19.25
61977;BMP280;45905;50.570;10.428;2023-07-29T06:18:24;97219.72;;;19.28
61977;BMP280;45905;50.570;10.428;2023-07-29T06:20:52;97216.47;;;19.32
61977;BMP280;45905;50.570;10.428;2023-07-29T06:23:19;97217.59;;;19.36
61977;BMP280;45905;50.570;10.428;2023-07-29T06:25:46;97211.22;;;19.39
61977;BMP280;45905;50.570;10.428;2023-07-29T06:28:13;97215.13;;;19.41
61977;BMP280;45905;50.570;10.428;2023-07-29T06:30:41;97224.94;;;19.44
61977;BMP280;45905;50.570;10.428;2023-07-29T06:33:08;97224.50;;;19.47
61977;BMP280;45905;50.570;10.428;2023-07-29T06:35:36;97218.13;;;19.49
61977;BMP280;45905;50.570;10.428;2023-07-29T06:38:03;97224.84;;;19.50
61977;BMP280;45905;50.570;10.428;2023-07-29T06:40:30;97234.13;;;19.51
61977;BMP280;45905;50.570;10.428;2023-07-29T06:42:57;97228.19;;;19.51
61977;BMP280;45905;50.570;10.428;2023-07-29T06:45:25;97220.38;;;19.46
61977;BMP280;45905;50.570;10.428;2023-07-29T06:47:52;97216.22;;;19.45
61977;BMP280;45905;50.570;10.428;2023-07-29T06:50:19;97210.88;;;19.47
61977;BMP280;45905;50.570;10.428;2023-07-29T06:52:46;97212.53;;;19.52
61977;BMP280;45905;50.570;10.428;2023-07-29T06:55:14;97219.78;;;19.55
61977;BMP280;45905;50.570;10.428;2023-07-29T06:57:41;97223.75;;;19.58
61977;BMP280;45905;50.570;10.428;2023-07-29T07:00:09;97225.88;;;19.61
61977;BMP280;45905;50.570;10.428;2023-07-29T07:02:36;97232.31;;;19.63
61977;BMP280;45905;50.570;10.428;2023-07-29T07:05:04;97222.25;;;19.62
61977;BMP280;45905;50.570;10.428;2023-07-29T07:07:31;97233.44;;;19.56
61977;BMP280;45905;50.570;10.428;2023-07-29T07:09:58;97229.28;;;19.55
61977;BMP280;45905;50.570;10.428;2023-07-29T07:12:27;97229.75;;;19.52
61977;BMP280;45905;50.570;10.428;2023-07-29T07:14:54;97236.81;;;19.56
61977;BMP280;45905;50.570;10.428;2023-07-29T07:17:22;97233.63;;;19.54
61977;BMP280;45905;50.570;10.428;2023-07-29T07:40:33;97222.59;;;19.65
61977;BMP280;45905;50.570;10.428;2023-07-29T07:43:01;97221.25;;;19.63
61977;BMP280;45905;50.570;10.428;2023-07-29T07:45:29;97216.59;;;19.60
61977;BMP280;45905;50.570;10.428;2023-07-29T07:47:56;97218.16;;;19.61
61977;BMP280;45905;50.570;10.428;2023-07-29T07:50:23;97221.03;;;19.64
61977;BMP280;45905;50.570;10.428;2023-07-29T07:52:51;97218.25;;;19.66
61977;BMP280;45905;50.570;10.428;2023-07-29T07:55:18;97217.13;;;19.62
61977;BMP280;45905;50.570;10.428;2023-07-29T07:57:46;97206.31;;;19.60
61977;BMP280;45905;50.570;10.428;2023-07-29T08:00:14;97208.41;;;19.63
61977;BMP280;45905;50.570;10.428;2023-07-29T08:02:44;97202.84;;;19.66
61977;BMP280;45905;50.570;10.428;2023-07-29T08:05:11;97188.97;;;19.67
61977;BMP280;45905;50.570;10.428;2023-07-29T08:07:39;97192.13;;;19.68
61977;BMP280;45905;50.570;10.428;2023-07-29T08:10:07;97187.75;;;19.69
61977;BMP280;45905;50.570;10.428;2023-07-29T08:12:34;97200.13;;;19.72
61977;BMP280;45905;50.570;10.428;2023-07-29T08:15:02;97195.56;;;19.74
61977;BMP280;45905;50.570;10.428;2023-07-29T08:17:30;97188.41;;;19.76
61977;BMP280;45905;50.570;10.428;2023-07-29T08:19:57;97180.47;;;19.77
61977;BMP280;45905;50.570;10.428;2023-07-29T08:22:25;97186.69;;;19.81
61977;BMP280;45905;50.570;10.428;2023-07-29T08:24:52;97191.94;;;19.86
61977;BMP280;45905;50.570;10.428;2023-07-29T08:27:20;97195.38;;;19.91
61977;BMP280;45905;50.570;10.428;2023-07-29T08:29:47;97198.28;;;19.95
61977;BMP280;45905;50.570;10.428;2023-07-29T08:32:15;97207.56;;;19.96
61977;BMP280;45905;50.570;10.428;2023-07-29T08:34:42;97210.22;;;20.01
61977;BMP280;45905;50.570;10.428;2023-07-29T08:37:09;97198.44;;;20.05
61977;BMP280;45905;50.570;10.428;2023-07-29T08:39:37;97200.78;;;20.06
61977;BMP280;45905;50.570;10.428;2023-07-29T08:42:08;97214.22;;;20.08
61977;BMP280;45905;50.570;10.428;2023-07-29T08:44:43;97207.50;;;20.07
61977;BMP280;45905;50.570;10.428;2023-07-29T08:47:12;97207.59;;;20.12
61977;BMP280;45905;50.570;10.428;2023-07-29T08:49:46;97207.47;;;20.18
61977;BMP280;45905;50.570;10.428;2023-07-29T08:52:15;97210.38;;;20.22
61977;BMP280;45905;50.570;10.428;2023-07-29T08:54:43;97199.81;;;20.23
61977;BMP280;45905;50.570;10.428;2023-07-29T08:57:10;97200.38;;;20.25
61977;BMP280;45905;50.570;10.428;2023-07-29T08:59:38;97199.94;;;20.28
61977;BMP280;45905;50.570;10.428;2023-07-29T09:02:07;97210.22;;;20.28
61977;BMP280;45905;50.570;10.428;2023-07-29T09:04:34;97200.72;;;20.28
61977;BMP280;45905;50.570;10.428;2023-07-29T09:07:02;97198.38;;;20.27
61977;BMP280;45905;50.570;10.428;2023-07-29T09:09:30;97192.22;;;20.28
61977;BMP280;45905;50.570;10.428;2023-07-29T09:11:57;97192.22;;;20.28
61977;BMP280;45905;50.570;10.428;2023-07-29T09:14:25;97193.22;;;20.27
61977;BMP280;45905;50.570;10.428;2023-07-29T09:16:54;97189.66;;;20.28
61977;BMP280;45905;50.570;10.428;2023-07-29T09:19:24;97189.41;;;20.29
61977;BMP280;45905;50.570;10.428;2023-07-29T09:21:52;97198.25;;;20.22
61977;BMP280;45905;50.570;10.428;2023-07-29T09:24:21;97205.97;;;20.22
61977;BMP280;45905;50.570;10.428;2023-07-29T09:26:50;97208.47;;;20.17
61977;BMP280;45905;50.570;10.428;2023-07-29T09:29:22;97208.03;;;20.20
61977;BMP280;45905;50.570;10.428;2023-07-29T09:31:51;97195.69;;;20.22
61977;BMP280;45905;50.570;10.428;2023-07-29T09:34:18;97208.09;;;20.25
61977;BMP280;45905;50.570;10.428;2023-07-29T09:36:45;97218.38;;;20.25
61977;BMP280;45905;50.570;10.428;2023-07-29T09:39:13;97224.53;;;20.24
61977;BMP280;45905;50.570;10.428;2023-07-29T09:41:41;97226.56;;;20.22
61977;BMP280;45905;50.570;10.428;2023-07-29T09:44:10;97227.09;;;20.24
61977;BMP280;45905;50.570;10.428;2023-07-29T09:46:38;97226.56;;;20.22
61977;BMP280;45905;50.570;10.428;2023-07-29T09:49:07;97230.16;;;20.21
61977;BMP280;45905;50.570;10.428;2023-07-29T09:51:39;97222.75;;;20.25
61977;BMP280;45905;50.570;10.428;2023-07-29T09:54:07;97221.06;;;20.30
61977;BMP280;45905;50.570;10.428;2023-07-29T09:56:41;97210.84;;;20.35
61977;BMP280;45905;50.570;10.428;2023-07-29T09:59:10;97207.50;;;20.34
61977;BMP280;45905;50.570;10.428;2023-07-29T10:01:40;97209.41;;;20.39
61977;BMP280;45905;50.570;10.428;2023-07-29T10:04:09;97214.19;;;20.46
61977;BMP280;45905;50.570;10.428;2023-07-29T10:06:41;97200.78;;;20.45
61977;BMP280;45905;50.570;10.428;2023-07-29T10:09:11;97205.75;;;20.51
61977;BMP280;45905;50.570;10.428;2023-07-29T10:11:40;97207.66;;;20.55
61977;BMP280;45905;50.570;10.428;2023-07-29T10:14:09;97194.41;;;20.63
61977;BMP280;45905;50.570;10.428;2023-07-29T10:16:37;97197.03;;;20.68
61977;BMP280;45905;50.570;10.428;2023-07-29T10:19:07;97189.25;;;20.79
61977;BMP280;45905;50.570;10.428;2023-07-29T10:21:39;97192.66;;;20.84
61977;BMP280;45905;50.570;10.428;2023-07-29T10:24:15;97193.16;;;20.98
61977;BMP280;45905;50.570;10.428;2023-07-29T10:26:46;97190.94;;;21.06
61977;BMP280;45905;50.570;10.428;2023-07-29T10:29:20;97184.00;;;21.22
61977;BMP280;45905;50.570;10.428;2023-07-29T10:31:54;97180.31;;;21.35
61977;BMP280;45905;50.570;10.428;2023-07-29T10:34:24;97179.69;;;21.44
61977;BMP280;45905;50.570;10.428;2023-07-29T10:36:52;97175.16;;;21.56
61977;BMP280;45905;50.570;10.428;2023-07-29T10:39:20;97171.16;;;21.64
61977;BMP280;45905;50.570;10.428;2023-07-29T10:42:06;97176.44;;;21.74
61977;BMP280;45905;50.570;10.428;2023-07-29T10:47:19;97191.72;;;21.80
61977;BMP280;45905;50.570;10.428;2023-07-29T10:49:53;97181.25;;;21.87
61977;BMP280;45905;50.570;10.428;2023-07-29T10:55:03;97186.53;;;21.97
61977;BMP280;45905;50.570;10.428;2023-07-29T10:57:39;97194.31;;;22.01
61977;BMP280;45905;50.570;10.428;2023-07-29T11:00:09;97196.41;;;22.04
61977;BMP280;45905;50.570;10.428;2023-07-29T11:02:38;97192.63;;;22.12
61977;BMP280;45905;50.570;10.428;2023-07-29T11:05:17;97185.69;;;22.17
61977;BMP280;45905;50.570;10.428;2023-07-29T11:07:49;97183.69;;;22.24
61977;BMP280;45905;50.570;10.428;2023-07-29T11:10:16;97177.88;;;22.33
61977;BMP280;45905;50.570;10.428;2023-07-29T11:12:49;97163.00;;;22.45
61977;BMP280;45905;50.570;10.428;2023-07-29T11:15:26;97161.00;;;22.52
61977;BMP280;45905;50.570;10.428;2023-07-29T11:17:56;97144.25;;;22.54
61977;BMP280;45905;50.570;10.428;2023-07-29T11:20:29;97145.28;;;22.53
61977;BMP280;45905;50.570;10.428;2023-07-29T11:23:03;97146.59;;;22.56
61977;BMP280;45905;50.570;10.428;2023-07-29T11:25:31;97140.72;;;22.60
61977;BMP280;45905;50.570;10.428;2023-07-29T11:28:00;97140.75;;;22.65
61977;BMP280;45905;50.570;10.428;2023-07-29T11:30:32;97137.19;;;22.71
61977;BMP280;45905;50.570;10.428;2023-07-29T11:33:01;97134.66;;;22.76
61977;BMP280;45905;50.570;10.428;2023-07-29T11:35:29;97129.81;;;22.84
61977;BMP280;45905;50.570;10.428;2023-07-29T11:37:59;97121.31;;;22.88
61977;BMP280;45905;50.570;10.428;2023-07-29T11:40:26;97116.66;;;22.90
61977;BMP280;45905;50.570;10.428;2023-07-29T11:42:54;97129.09;;;22.93
61977;BMP280;45905;50.570;10.428;2023-07-29T11:45:22;97124.44;;;22.95
61977;BMP280;45905;50.570;10.428;2023-07-29T11:48:06;97124.47;;;23.00
61977;BMP280;45905;50.570;10.428;2023-07-29T11:50:35;97125.03;;;23.07
61977;BMP280;45905;50.570;10.428;2023-07-29T11:53:02;97118.13;;;23.17
61977;BMP280;45905;50.570;10.428;2023-07-29T11:55:30;97112.56;;;23.34
61977;BMP280;45905;50.570;10.428;2023-07-29T11:57:57;97103.81;;;23.50
61977;BMP280;45905;50.570;10.428;2023-07-29T12:00:25;97105.41;;;23.66
61977;BMP280;45905;50.570;10.428;2023-07-29T12:02:54;97114.50;;;23.78
61977;BMP280;45905;50.570;10.428;2023-07-29T12:05:23;97115.53;;;23.82
61977;BMP280;45905;50.570;10.428;2023-07-29T12:07:51;97109.88;;;23.85
61977;BMP280;45905;50.570;10.428;2023-07-29T12:10:19;97106.25;;;23.81
61977;BMP280;45905;50.570;10.428;2023-07-29T12:12:50;97105.47;;;23.80
61977;BMP280;45905;50.570;10.428;2023-07-29T12:15:28;97090.22;;;23.84
61977;BMP280;45905;50.570;10.428;2023-07-29T12:17:58;97107.63;;;23.98
61977;BMP280;45905;50.570;10.428;2023-07-29T12:20:26;97097.03;;;24.14
61977;BMP280;45905;50.570;10.428;2023-07-29T12:22:57;97091.84;;;24.29
61977;BMP280;45905;50.570;10.428;2023-07-29T12:25:26;97091.34;;;24.31
61977;BMP280;45905;50.570;10.428;2023-07-29T12:27:54;97097.53;;;24.35
61977;BMP280;45905;50.570;10.428;2023-07-29T12:30:23;97090.84;;;24.39
61977;BMP280;45905;50.570;10.428;2023-07-29T12:32:51;97095.75;;;24.41
61977;BMP280;45905;50.570;10.428;2023-07-29T12:35:19;97092.91;;;24.42
61977;BMP280;45905;50.570;10.428;2023-07-29T12:37:46;97100.66;;;24.47
61977;BMP280;45905;50.570;10.428;2023-07-29T12:40:26;97087.72;;;24.57
61977;BMP280;45905;50.570;10.428;2023-07-29T12:42:54;97093.19;;;24.65
61977;BMP280;45905;50.570;10.428;2023-07-29T12:45:22;97107.66;;;24.71
61977;BMP280;45905;50.570;10.428;2023-07-29T12:47:55;97101.69;;;24.70
61977;BMP280;45905;50.570;10.428;2023-07-29T12:50:23;97115.69;;;24.69
61977;BMP280;45905;50.570;10.428;2023-07-29T12:52:50;97112.34;;;24.64
61977;BMP280;45905;50.570;10.428;2023-07-29T12:55:17;97108.19;;;24.58
61977;BMP280;45905;50.570;10.428;2023-07-29T12:57:55;97104.53;;;24.54
61977;BMP280;45905;50.570;10.428;2023-07-29T13:00:22;97104.78;;;24.53
61977;BMP280;45905;50.570;10.428;2023-07-29T13:02:50;97103.75;;;24.54
61977;BMP280;45905;50.570;10.428;2023-07-29T13:05:18;97105.31;;;24.60
61977;BMP280;45905;50.570;10.428;2023-07-29T13:07:45;97115.19;;;24.68
61977;BMP280;45905;50.570;10.428;2023-07-29T13:10:13;97102.50;;;24.66
61977;BMP280;45905;50.570;10.428;2023-07-29T13:12:41;97101.44;;;24.57
61977;BMP280;45905;50.570;10.428;2023-07-29T13:15:08;97102.72;;;24.55
61977;BMP280;45905;50.570;10.428;2023-07-29T13:17:36;97085.66;;;24.49
61977;BMP280;45905;50.570;10.428;2023-07-29T13:20:06;97085.91;;;24.57
61977;BMP280;45905;50.570;10.428;2023-07-29T13:22:33;97085.38;;;24.70
61977;BMP280;45905;50.570;10.428;2023-07-29T13:25:01;97085.88;;;24.91
61977;BMP280;45905;50.570;10.428;2023-07-29T13:27:29;97084.03;;;25.02
61977;BMP280;45905;50.570;10.428;2023-07-29T13:29:56;97080.38;;;25.07
61977;BMP280;45905;50.570;10.428;2023-07-29T13:32:23;97090.50;;;25.09
61977;BMP280;45905;50.570;10.428;2023-07-29T13:34:51;97095.19;;;25.02
61977;BMP280;45905;50.570;10.428;2023-07-29T13:37:18;97114.13;;;24.93
61977;BMP280;45905;50.570;10.428;2023-07-29T13:39:46;97166.97;;;24.68
61977;BMP280;45905;50.570;10.428;2023-07-29T13:42:13;97213.44;;;24.04
61977;BMP280;45905;50.570;10.428;2023-07-29T13:44:40;97179.88;;;23.18
61977;BMP280;45905;50.570;10.428;2023-07-29T13:47:07;97194.34;;;22.84
61977;BMP280;45905;50.570;10.428;2023-07-29T13:49:34;97208.22;;;22.52
61977;BMP280;45905;50.570;10.428;2023-07-29T13:52:02;97211.00;;;22.41
61977;BMP280;45905;50.570;10.428;2023-07-29T13:54:30;97206.66;;;21.99
61977;BMP280;45905;50.570;10.428;2023-07-29T13:56:57;97191.91;;;21.74
61977;BMP280;45905;50.570;10.428;2023-07-29T13:59:25;97183.22;;;21.59
61977;BMP280;45905;50.570;10.428;2023-07-29T14:01:52;97179.59;;;21.39
61977;BMP280;45905;50.570;10.428;2023-07-29T14:04:19;97200.75;;;21.41
61977;BMP280;45905;50.570;10.428;2023-07-29T14:06:46;97197.63;;;21.39
61977;BMP280;45905;50.570;10.428;2023-07-29T14:09:20;97216.22;;;21.41
61977;BMP280;45905;50.570;10.428;2023-07-29T14:11:47;97233.56;;;21.29
61977;BMP280;45905;50.570;10.428;2023-07-29T14:14:15;97240.72;;;21.11
61977;BMP280;45905;50.570;10.428;2023-07-29T14:16:42;97226.84;;;20.80
61977;BMP280;45905;50.570;10.428;2023-07-29T14:19:09;97220.81;;;20.75
61977;BMP280;45905;50.570;10.428;2023-07-29T14:21:37;97220.19;;;20.68
61977;BMP280;45905;50.570;10.428;2023-07-29T14:24:05;97214.50;;;20.66
61977;BMP280;45905;50.570;10.428;2023-07-29T14:26:32;97206.03;;;20.65
61977;BMP280;45905;50.570;10.428;2023-07-29T14:28:59;97200.63;;;20.67
61977;BMP280;45905;50.570;10.428;2023-07-29T14:31:26;97206.56;;;20.67